Dogpatch, Arkansas
Current Conditions -  °F | °C
As of 4:53 AM on Friday 31 Oct 2014 (Local Time) from KHRO Reporting Station
Clear Clear  
Wind Chill: 45°   Ceiling: Unl
Heat Index: 49°   Visibility: 10mi
Dew Point: 40°   Wind: 9mph
Humidity: 71%   Direction: 340°NNW
Pressure: 30.14"   Gusts: NA
Location:  36.0842°N, 93.1502°W
Report Text: KHRO 310953Z AUTO 34008KT 10SM CLR 09/04 A3014 RMK AO2 SLP202 T00940044
Loading
Personal Weather Stations






























Interactive Weather Map
Tropical Storm Tracking
New forecast layout! Learn more

10-Day Weather Forecast

Advertisements
Track Severe Weather on mobile